createdAt,value
2023-03-26T00:00:38.161Z,78.1048
2023-03-26T00:01:39.501Z,77.2867
2023-03-26T00:02:40.141Z,78.1723
2023-03-26T00:03:41.588Z,77.9967
2023-03-26T00:04:41.662Z,77.8359
2023-03-26T00:06:42.941Z,78.6700
2023-03-26T00:07:42.974Z,78.4224
2023-03-26T00:08:44.215Z,77.4721
2023-03-26T00:09:44.225Z,77.8056
2023-03-26T00:10:45.617Z,77.5057
2023-03-26T00:11:45.612Z,78.1071
2023-03-26T00:12:45.629Z,78.0431
2023-03-26T00:13:46.847Z,77.2369
2023-03-26T00:14:46.881Z,77.5130
2023-03-26T00:15:48.127Z,78.4081
2023-03-26T00:16:48.530Z,77.3346
2023-03-26T00:17:48.566Z,77.4912
2023-03-26T00:18:49.433Z,75.8903
2023-03-26T00:19:50.897Z,75.4439
2023-03-26T00:20:52.021Z,76.3570
2023-03-26T00:22:53.116Z,76.6047
2023-03-26T00:23:53.420Z,78.4341
2023-03-26T00:24:54.638Z,78.6925
2023-03-26T00:25:55.548Z,79.6155
2023-03-26T00:26:55.832Z,79.6567
2023-03-26T00:27:57.048Z,77.1905
2023-03-26T00:28:57.103Z,80.0176
2023-03-26T00:29:58.272Z,79.6601
2023-03-26T00:30:58.534Z,78.3433
2023-03-26T00:31:58.570Z,78.4698
2023-03-26T00:32:58.820Z,79.8499
2023-03-26T00:34:00.083Z,79.4369
2023-03-26T00:35:00.067Z,79.8872
2023-03-26T00:36:05.181Z,77.2008
2023-03-26T00:37:05.139Z,75.7488
2023-03-26T00:38:06.443Z,77.0018
2023-03-26T00:39:06.866Z,77.5871
2023-03-26T00:40:07.231Z,78.0550
2023-03-26T00:41:07.319Z,76.2241
2023-03-26T00:42:07.522Z,77.5551
2023-03-26T00:43:07.635Z,76.7910
2023-03-26T00:44:08.948Z,76.8647
2023-03-26T00:45:08.968Z,75.3454
2023-03-26T00:46:10.353Z,78.6139
2023-03-26T00:47:10.913Z,80.7865
2023-03-26T00:48:11.343Z,82.5074
2023-03-26T00:49:12.054Z,77.1080
2023-03-26T00:50:12.087Z,79.1053
2023-03-26T00:51:13.259Z,78.6728
2023-03-26T00:52:13.267Z,81.4921
2023-03-26T00:53:14.729Z,80.4170
2023-03-26T00:54:14.728Z,79.9118
2023-03-26T00:55:14.746Z,78.3354
2023-03-26T00:56:15.950Z,81.1314
2023-03-26T00:57:34.548Z,79.6750
2023-03-26T00:58:20.599Z,82.3903
2023-03-26T00:59:20.607Z,81.4256
2023-03-26T01:00:22.011Z,83.2201
2023-03-26T01:01:22.043Z,81.3327
2023-03-26T01:02:22.250Z,79.9303
2023-03-26T01:03:27.840Z,81.8176
2023-03-26T01:05:24.364Z,79.6622
2023-03-26T01:06:24.404Z,80.5032
2023-03-26T01:07:25.556Z,80.4077
2023-03-26T01:08:25.610Z,81.8991
2023-03-26T01:09:26.793Z,79.9624
2023-03-26T01:10:28.131Z,80.6116
2023-03-26T01:11:29.438Z,82.3430
2023-03-26T01:12:30.657Z,81.1925
2023-03-26T01:13:30.801Z,81.2980
2023-03-26T01:14:32.007Z,83.3429
2023-03-26T01:15:32.081Z,82.2712
2023-03-26T01:16:32.380Z,81.0708
2023-03-26T01:17:32.487Z,82.5797
2023-03-26T01:18:33.672Z,82.1151
2023-03-26T01:19:33.719Z,81.9663
2023-03-26T01:20:35.117Z,82.1202
2023-03-26T01:21:36.287Z,83.9687
2023-03-26T01:22:37.597Z,85.4974
2023-03-26T01:23:38.885Z,83.3323
2023-03-26T01:24:38.899Z,82.5313
2023-03-26T01:25:40.238Z,83.7333
2023-03-26T01:26:41.410Z,83.6707
2023-03-26T01:29:43.831Z,82.7035
2023-03-26T01:30:43.786Z,83.5498
2023-03-26T01:31:45.113Z,83.4732
2023-03-26T01:32:46.134Z,83.4296
2023-03-26T01:33:46.194Z,85.7739
2023-03-26T01:34:46.254Z,83.8717
2023-03-26T01:35:47.571Z,85.7285
2023-03-26T01:36:47.797Z,85.6048
2023-03-26T01:37:48.989Z,84.7789
2023-03-26T01:38:49.599Z,85.1492
2023-03-26T01:39:51.162Z,84.5288
2023-03-26T01:40:51.786Z,84.2585
2023-03-26T01:41:51.861Z,82.7543
2023-03-26T01:42:53.094Z,82.9741
2023-03-26T01:43:53.076Z,83.1358
2023-03-26T01:44:54.405Z,82.5055
2023-03-26T01:45:55.875Z,83.7294
2023-03-26T01:46:56.481Z,83.2453
2023-03-26T01:47:56.499Z,84.4415
2023-03-26T01:48:56.566Z,85.8683
2023-03-26T01:49:56.644Z,85.3628
2023-03-26T01:50:56.794Z,82.8205
2023-03-26T01:51:58.131Z,83.4682
2023-03-26T01:52:59.355Z,85.4469
2023-03-26T01:53:59.442Z,84.4616
2023-03-26T01:55:00.701Z,85.5861
2023-03-26T01:56:00.745Z,83.4449
2023-03-26T01:57:00.758Z,84.8152
2023-03-26T01:58:00.842Z,84.5491
2023-03-26T01:59:02.024Z,84.7375
2023-03-26T02:00:03.328Z,86.6363
2023-03-26T02:01:03.512Z,85.9127
2023-03-26T02:02:03.711Z,87.5235
2023-03-26T02:03:04.982Z,87.5048
2023-03-26T02:04:05.156Z,86.2862
2023-03-26T02:06:05.681Z,85.6282
2023-03-26T02:07:06.785Z,86.3685
2023-03-26T02:08:07.108Z,83.9105
2023-03-26T02:09:08.350Z,84.4137
2023-03-26T02:10:08.423Z,83.1690
2023-03-26T02:11:09.878Z,84.1089
2023-03-26T02:12:09.895Z,84.9092
2023-03-26T02:13:09.922Z,83.1977
2023-03-26T02:14:11.121Z,82.3192
2023-03-26T02:15:11.165Z,82.2184
2023-03-26T02:16:11.147Z,83.5248
2023-03-26T02:17:11.470Z,84.0160
2023-03-26T02:18:11.569Z,83.2821
2023-03-26T02:19:11.641Z,83.3658
2023-03-26T02:20:12.820Z,83.8964
2023-03-26T02:21:12.881Z,85.6048
2023-03-26T02:22:14.213Z,83.7865
2023-03-26T02:23:15.533Z,83.6574
2023-03-26T02:24:15.632Z,84.8516
2023-03-26T02:25:16.862Z,86.0558
2023-03-26T02:27:17.851Z,86.6708
2023-03-26T02:28:17.889Z,86.2616
2023-03-26T02:29:19.325Z,85.1014
2023-03-26T02:30:20.550Z,86.4614
2023-03-26T02:31:20.636Z,85.2094
2023-03-26T02:32:20.714Z,85.5892
2023-03-26T02:33:21.322Z,86.7531
2023-03-26T02:34:22.599Z,87.0949
2023-03-26T02:35:22.959Z,85.9874
2023-03-26T02:37:23.641Z,85.6810
2023-03-26T02:38:25.093Z,84.8818
2023-03-26T02:39:25.090Z,86.8524
2023-03-26T02:40:25.423Z,86.8845
2023-03-26T02:41:26.644Z,86.4783
2023-03-26T02:42:26.771Z,85.4448
2023-03-26T02:43:27.947Z,84.8387
2023-03-26T02:45:29.323Z,84.9689
2023-03-26T02:46:29.531Z,84.2078
2023-03-26T02:47:29.936Z,82.9887
2023-03-26T02:48:29.912Z,83.1683
2023-03-26T02:49:30.020Z,83.7338
2023-03-26T02:50:30.026Z,82.5704
2023-03-26T02:51:30.549Z,82.8012
2023-03-26T02:52:31.832Z,81.8752
2023-03-26T02:53:32.110Z,82.1992
2023-03-26T02:54:32.061Z,82.6330
2023-03-26T02:55:32.160Z,83.9782
2023-03-26T02:56:33.425Z,83.3919
2023-03-26T02:57:33.702Z,82.2368
2023-03-26T02:58:33.749Z,82.5389
2023-03-26T02:59:33.881Z,82.5006
2023-03-26T03:00:34.121Z,83.2742
2023-03-26T03:01:34.607Z,82.4064
2023-03-26T03:02:34.730Z,83.5067
2023-03-26T03:03:35.440Z,83.5571
2023-03-26T03:04:35.611Z,83.4234
2023-03-26T03:05:35.629Z,84.5311
2023-03-26T03:06:35.738Z,82.6689
2023-03-26T03:07:37.065Z,82.5952
2023-03-26T03:08:37.217Z,84.5918
2023-03-26T03:09:38.512Z,84.0586
2023-03-26T03:10:38.621Z,85.0435
2023-03-26T03:11:39.948Z,84.6523
2023-03-26T03:12:39.994Z,84.2110
2023-03-26T03:13:41.488Z,85.1355
2023-03-26T03:14:42.782Z,85.2517
2023-03-26T03:15:42.958Z,85.0713
2023-03-26T03:16:43.101Z,84.7193
2023-03-26T03:17:43.578Z,85.3113
2023-03-26T03:18:43.662Z,86.3119
2023-03-26T03:19:43.783Z,88.1529
2023-03-26T03:20:43.835Z,87.4353
2023-03-26T03:21:43.991Z,87.6285
2023-03-26T03:22:45.284Z,88.5151
2023-03-26T03:23:45.395Z,88.3301
2023-03-26T03:24:46.683Z,87.9595
2023-03-26T03:25:46.791Z,87.6002
2023-03-26T03:26:47.920Z,88.6987
2023-03-26T03:27:47.876Z,87.8138
2023-03-26T03:28:48.016Z,88.9523
2023-03-26T03:29:49.304Z,89.1279
2023-03-26T03:30:49.551Z,87.3023
2023-03-26T03:31:50.106Z,86.9772
2023-03-26T03:32:50.695Z,87.2982
2023-03-26T03:33:50.845Z,87.1739
2023-03-26T03:34:51.004Z,89.7728
2023-03-26T03:35:51.327Z,86.0749
2023-03-26T03:37:52.740Z,87.7339
2023-03-26T03:38:54.070Z,88.2968
2023-03-26T03:39:54.242Z,86.6382
2023-03-26T03:40:54.253Z,86.9055
2023-03-26T03:42:55.664Z,90.3121
2023-03-26T03:43:55.929Z,89.8479
2023-03-26T03:44:56.100Z,91.4876
2023-03-26T03:45:56.682Z,92.0752
2023-03-26T03:46:57.284Z,92.1736
2023-03-26T03:47:57.674Z,91.9344
2023-03-26T03:48:57.942Z,92.4458
2023-03-26T03:49:59.215Z,91.0624
2023-03-26T03:50:59.523Z,91.4641
2023-03-26T03:51:59.540Z,92.5561
2023-03-26T03:52:59.965Z,91.3691
2023-03-26T03:54:00.002Z,91.4486
2023-03-26T03:55:00.158Z,89.5341
2023-03-26T03:56:00.348Z,89.1580
2023-03-26T03:57:00.770Z,90.0981
2023-03-26T03:58:00.768Z,88.5279
2023-03-26T03:59:00.886Z,88.4502
2023-03-26T04:00:01.684Z,87.6346
2023-03-26T04:01:03.037Z,86.5877
2023-03-26T04:02:03.181Z,88.0762
2023-03-26T04:03:03.695Z,87.6644
2023-03-26T04:04:04.723Z,87.5842
2023-03-26T04:05:04.950Z,87.9943
2023-03-26T04:06:05.169Z,87.5688
2023-03-26T04:07:05.152Z,87.3845
2023-03-26T04:08:05.331Z,87.2794
2023-03-26T04:10:08.095Z,86.2489
2023-03-26T04:11:08.225Z,87.6355
2023-03-26T04:12:08.221Z,89.1007
2023-03-26T04:13:08.318Z,86.4397
2023-03-26T04:14:08.336Z,86.2633
2023-03-26T04:15:08.495Z,87.4577
2023-03-26T04:16:08.637Z,90.3961
2023-03-26T04:17:08.932Z,88.8860
2023-03-26T04:18:09.081Z,87.9191
2023-03-26T04:19:09.240Z,86.1758
2023-03-26T04:20:09.289Z,88.6364
2023-03-26T04:21:09.477Z,88.3393
2023-03-26T04:22:09.481Z,89.3497
2023-03-26T04:23:09.619Z,87.4596
2023-03-26T04:24:10.879Z,88.7656
2023-03-26T04:25:11.474Z,89.2146
2023-03-26T04:26:11.622Z,88.7610
2023-03-26T04:27:11.650Z,90.3479
2023-03-26T04:28:11.817Z,87.2666
2023-03-26T04:29:13.157Z,87.8592
2023-03-26T04:31:14.465Z,89.1856
2023-03-26T04:32:14.950Z,85.9683
2023-03-26T04:33:15.169Z,84.6500
2023-03-26T04:34:15.375Z,84.9165
2023-03-26T04:35:15.353Z,85.5705
2023-03-26T04:36:15.771Z,87.3115
2023-03-26T04:37:15.763Z,87.2554
2023-03-26T04:39:15.836Z,87.8523
2023-03-26T04:40:16.033Z,86.8965
2023-03-26T04:41:16.014Z,87.3123
2023-03-26T04:42:16.119Z,85.7556
2023-03-26T04:43:16.147Z,86.5653
2023-03-26T04:44:16.217Z,88.6909
2023-03-26T04:45:17.507Z,88.2198
2023-03-26T04:46:17.702Z,86.1424
2023-03-26T04:47:17.781Z,85.6641
2023-03-26T04:48:18.444Z,85.9968
2023-03-26T04:49:19.926Z,84.9857
2023-03-26T04:50:21.213Z,87.9667
2023-03-26T04:51:21.428Z,86.5567
2023-03-26T04:52:21.446Z,85.3819
2023-03-26T04:53:22.598Z,86.3654
2023-03-26T04:54:24.094Z,87.0672
2023-03-26T04:55:25.430Z,88.5401
2023-03-26T04:56:25.581Z,87.3491
2023-03-26T04:57:25.731Z,86.2913
2023-03-26T04:58:25.856Z,85.8232
2023-03-26T04:59:25.858Z,86.0639
2023-03-26T05:00:26.023Z,86.3655
2023-03-26T05:01:26.036Z,87.5137
2023-03-26T05:02:26.350Z,86.9556
2023-03-26T05:03:27.002Z,86.8692
2023-03-26T05:04:27.618Z,87.9336
2023-03-26T05:05:27.682Z,86.5056
2023-03-26T05:06:28.525Z,86.4796
2023-03-26T05:07:28.520Z,87.8066
2023-03-26T05:08:28.733Z,87.0155
2023-03-26T05:09:28.709Z,88.1297
2023-03-26T05:10:28.771Z,89.4872
2023-03-26T05:11:29.563Z,89.7626
2023-03-26T05:12:29.697Z,87.7331
2023-03-26T05:13:29.750Z,87.3949
2023-03-26T05:14:30.054Z,88.0059
2023-03-26T05:15:31.582Z,89.6214
2023-03-26T05:16:31.944Z,87.5091
2023-03-26T05:17:32.381Z,87.4335
2023-03-26T05:18:32.537Z,86.1903
2023-03-26T05:19:32.687Z,86.8350
2023-03-26T05:20:32.697Z,88.2021
2023-03-26T05:21:32.834Z,87.2676
2023-03-26T05:23:34.146Z,88.7422
2023-03-26T05:24:34.166Z,86.3746
2023-03-26T05:25:34.353Z,85.5057
2023-03-26T05:26:34.315Z,85.0776
2023-03-26T05:27:34.431Z,85.5484
2023-03-26T05:28:35.722Z,86.2255
2023-03-26T05:29:35.830Z,86.7555
2023-03-26T05:30:36.182Z,86.7385
2023-03-26T05:31:36.613Z,88.6804
2023-03-26T05:32:36.783Z,87.2023
2023-03-26T05:33:36.856Z,88.3020
2023-03-26T05:34:37.162Z,88.9406
2023-03-26T05:35:37.460Z,88.5337
2023-03-26T05:36:37.733Z,87.1913
2023-03-26T05:37:38.010Z,85.7186
2023-03-26T05:38:38.462Z,85.8547
2023-03-26T05:39:38.626Z,87.0191
2023-03-26T05:40:39.067Z,88.9054
2023-03-26T05:41:39.323Z,88.7264
2023-03-26T05:42:39.430Z,87.9851
2023-03-26T05:43:39.702Z,89.4747
2023-03-26T05:44:39.892Z,90.6674
2023-03-26T05:45:40.184Z,90.7995
2023-03-26T05:46:40.487Z,90.3514
2023-03-26T05:47:41.106Z,90.8768
2023-03-26T05:48:41.663Z,92.0747
2023-03-26T05:49:41.744Z,92.0257
2023-03-26T05:50:41.988Z,93.1130
2023-03-26T05:52:42.510Z,93.5293
2023-03-26T05:53:42.583Z,94.6255
2023-03-26T05:55:44.085Z,93.9172
2023-03-26T05:56:44.884Z,92.6796
2023-03-26T05:57:45.185Z,94.5623
2023-03-26T05:58:45.379Z,94.2913
2023-03-26T05:59:45.424Z,94.0618
2023-03-26T06:00:45.682Z,95.5167
2023-03-26T06:01:46.269Z,95.5833
2023-03-26T06:02:46.899Z,96.1671
2023-03-26T06:04:48.173Z,96.1278
2023-03-26T06:05:48.629Z,96.8704
2023-03-26T06:06:48.677Z,97.3406
2023-03-26T06:07:48.967Z,97.4241
2023-03-26T06:08:49.044Z,96.1182
2023-03-26T06:09:50.425Z,97.1601
2023-03-26T06:10:51.071Z,97.5559
2023-03-26T06:11:52.068Z,97.5124
2023-03-26T06:12:52.134Z,97.3292
2023-03-26T06:14:53.640Z,97.3692
2023-03-26T06:15:53.942Z,97.6245
2023-03-26T06:16:54.090Z,96.3623
2023-03-26T06:17:54.296Z,96.1820
2023-03-26T06:18:59.555Z,95.3178
2023-03-26T06:19:59.813Z,94.3700
2023-03-26T06:21:00.301Z,94.1914
2023-03-26T06:22:00.515Z,93.9291
2023-03-26T06:23:00.583Z,95.3059
2023-03-26T06:24:00.809Z,95.7979
2023-03-26T06:25:01.068Z,96.1334
2023-03-26T06:26:01.441Z,95.9435
2023-03-26T06:28:01.626Z,93.6091
2023-03-26T06:29:01.670Z,95.4742
2023-03-26T06:30:01.939Z,95.8537
2023-03-26T06:32:16.179Z,93.6667
2023-03-26T06:33:04.441Z,94.2441
2023-03-26T06:34:04.595Z,95.3848
2023-03-26T06:35:04.724Z,96.2336
2023-03-26T06:36:05.169Z,96.7900
2023-03-26T06:37:05.492Z,96.8407
2023-03-26T06:38:05.614Z,97.0444
2023-03-26T06:39:09.782Z,97.0022
2023-03-26T06:40:09.890Z,95.8052
2023-03-26T06:41:10.575Z,96.5355
2023-03-26T06:42:10.910Z,96.8343
2023-03-26T06:44:12.004Z,97.3914
2023-03-26T06:45:12.112Z,97.1471
2023-03-26T06:46:12.519Z,97.3259
2023-03-26T06:47:12.630Z,96.8092
2023-03-26T06:48:13.063Z,97.3434
2023-03-26T06:50:13.286Z,97.5723
2023-03-26T06:51:13.542Z,97.5694
2023-03-26T06:52:13.736Z,96.6382
2023-03-26T06:53:13.861Z,97.4351
2023-03-26T06:54:14.169Z,96.0644
2023-03-26T06:55:14.247Z,96.7266
2023-03-26T06:56:15.220Z,96.6357
2023-03-26T06:57:15.858Z,97.1827
2023-03-26T06:58:15.975Z,97.0411
2023-03-26T06:59:16.249Z,96.7456
2023-03-26T07:00:16.387Z,96.8791
2023-03-26T07:02:16.670Z,97.9974
2023-03-26T07:03:17.203Z,96.3226
2023-03-26T07:04:18.402Z,97.3810
2023-03-26T07:05:18.887Z,97.8553
2023-03-26T07:06:18.981Z,97.9739
2023-03-26T07:07:19.274Z,96.0322
2023-03-26T07:08:19.941Z,93.1953
2023-03-26T07:09:20.167Z,93.6839
2023-03-26T07:10:20.273Z,91.5622
2023-03-26T07:11:21.138Z,94.8190
2023-03-26T07:12:21.411Z,91.8174
2023-03-26T07:13:21.453Z,89.4364
2023-03-26T07:14:22.561Z,90.8761
2023-03-26T07:17:23.490Z,89.2293
2023-03-26T07:18:23.935Z,89.0155
2023-03-26T07:19:24.024Z,86.5099
2023-03-26T07:20:24.445Z,89.2464
2023-03-26T07:21:24.921Z,89.4013
2023-03-26T07:22:25.153Z,89.2234
2023-03-26T07:23:25.554Z,89.4143
2023-03-26T07:24:25.846Z,88.3839
2023-03-26T07:25:26.000Z,88.8798
2023-03-26T07:26:26.212Z,88.9146
2023-03-26T07:27:26.342Z,87.9190
2023-03-26T07:28:26.752Z,87.9840
2023-03-26T07:29:27.621Z,88.1373
2023-03-26T07:30:27.705Z,89.4228
2023-03-26T07:31:28.064Z,89.3638
2023-03-26T07:32:28.764Z,89.9235
2023-03-26T07:33:29.061Z,90.0844
2023-03-26T07:34:29.237Z,89.9215
2023-03-26T07:35:29.644Z,90.5094
2023-03-26T07:36:29.738Z,91.0604
2023-03-26T07:37:30.023Z,91.1081
2023-03-26T07:38:30.103Z,91.4706
2023-03-26T07:39:31.304Z,89.9421
2023-03-26T07:40:31.597Z,90.1428
2023-03-26T07:41:32.247Z,90.1798
2023-03-26T07:42:32.414Z,89.6744
2023-03-26T07:43:32.636Z,90.1615
2023-03-26T07:44:34.590Z,91.1023
2023-03-26T07:45:33.335Z,92.3936
2023-03-26T07:46:33.709Z,90.6643
2023-03-26T07:47:34.141Z,88.8686
2023-03-26T07:50:35.677Z,90.3452
2023-03-26T07:51:36.363Z,89.5670
2023-03-26T07:52:36.512Z,88.5638
2023-03-26T07:53:36.764Z,89.0948
2023-03-26T07:54:36.924Z,89.6662
2023-03-26T07:55:37.186Z,89.9159
2023-03-26T07:56:37.373Z,89.4347
2023-03-26T07:57:38.369Z,89.1575
2023-03-26T07:58:38.475Z,88.9931
2023-03-26T07:59:38.812Z,89.7630
2023-03-26T08:00:38.944Z,91.8257
2023-03-26T08:01:39.167Z,90.8996
2023-03-26T08:02:39.352Z,91.7903
2023-03-26T08:03:40.436Z,90.6390
2023-03-26T08:04:41.494Z,89.6517
2023-03-26T08:05:42.302Z,90.6585
2023-03-26T08:06:42.549Z,89.5850
2023-03-26T08:07:43.522Z,90.1999
2023-03-26T08:08:43.805Z,91.4218
2023-03-26T08:09:44.107Z,92.5786
2023-03-26T08:10:44.211Z,92.2521
2023-03-26T08:11:44.977Z,91.5170
2023-03-26T08:12:45.222Z,92.4608
2023-03-26T08:13:45.471Z,92.8255
2023-03-26T08:14:45.703Z,91.8669
2023-03-26T08:15:46.203Z,91.4915
2023-03-26T08:18:47.060Z,91.8350
2023-03-26T08:19:47.502Z,91.4238
2023-03-26T08:20:47.717Z,91.2151
2023-03-26T08:21:48.089Z,91.6029
2023-03-26T08:22:48.232Z,92.2083
2023-03-26T08:23:51.963Z,91.6948
2023-03-26T08:25:51.195Z,92.6937
2023-03-26T08:26:51.640Z,93.4691
2023-03-26T08:28:52.074Z,92.4937
2023-03-26T08:29:52.287Z,93.1140
2023-03-26T08:30:53.241Z,93.5102
2023-03-26T08:31:53.242Z,93.6292
2023-03-26T08:32:53.696Z,93.0139
2023-03-26T08:33:53.908Z,92.9559
2023-03-26T08:34:54.322Z,93.1874
2023-03-26T08:35:55.075Z,94.1041
2023-03-26T08:36:55.558Z,94.2039
2023-03-26T08:37:55.756Z,93.1652
2023-03-26T08:38:56.111Z,92.2779
2023-03-26T08:39:56.362Z,92.5475
2023-03-26T08:40:57.372Z,93.2486
2023-03-26T08:41:57.881Z,92.6560
2023-03-26T08:42:58.190Z,92.3441
2023-03-26T08:43:58.548Z,92.3421
2023-03-26T08:44:58.958Z,92.3651
2023-03-26T08:46:59.526Z,91.5816
2023-03-26T08:47:59.990Z,91.3051
2023-03-26T08:49:00.166Z,92.3690
2023-03-26T08:50:00.860Z,91.8441
2023-03-26T08:51:01.728Z,91.4719
2023-03-26T08:52:02.078Z,92.0903
2023-03-26T08:53:02.255Z,92.6681
2023-03-26T08:54:02.567Z,91.0547
2023-03-26T08:55:02.932Z,91.3535
2023-03-26T08:56:03.303Z,92.6096
2023-03-26T08:57:03.712Z,92.1963
2023-03-26T08:58:04.818Z,91.9274
2023-03-26T09:00:05.915Z,91.5822
2023-03-26T09:01:07.041Z,91.7071
2023-03-26T09:02:07.672Z,92.6481
2023-03-26T09:03:08.399Z,91.2737
2023-03-26T09:04:08.817Z,91.1628
2023-03-26T09:05:09.062Z,92.0356
2023-03-26T09:06:09.268Z,95.9689
2023-03-26T09:07:09.561Z,98.3587
2023-03-26T09:08:09.730Z,98.5112
2023-03-26T09:09:18.766Z,98.5920
2023-03-26T09:10:11.662Z,98.6244
2023-03-26T09:11:12.567Z,98.5204
2023-03-26T09:12:12.919Z,98.5144
2023-03-26T09:13:13.389Z,98.4871
2023-03-26T09:15:14.020Z,98.4110
2023-03-26T09:16:14.596Z,98.3871
2023-03-26T09:17:15.073Z,98.3210
2023-03-26T09:18:15.573Z,98.2278
2023-03-26T09:19:15.788Z,98.1654
2023-03-26T09:21:16.809Z,97.8382
2023-03-26T09:22:17.114Z,97.8251
2023-03-26T09:23:17.328Z,97.7905
2023-03-26T09:24:17.715Z,97.7831
2023-03-26T09:25:17.956Z,97.7695
2023-03-26T09:26:18.357Z,97.7004
2023-03-26T09:27:18.523Z,97.6305
2023-03-26T09:28:18.838Z,97.5601
2023-03-26T09:29:18.975Z,97.4392
2023-03-26T09:30:20.014Z,97.3804
2023-03-26T09:31:20.356Z,97.2806
2023-03-26T09:32:21.103Z,97.1847
2023-03-26T09:33:21.476Z,97.1050
2023-03-26T09:34:21.801Z,97.0027
2023-03-26T09:35:21.946Z,96.9265
2023-03-26T09:36:22.630Z,96.8174
2023-03-26T09:37:22.840Z,96.7417
2023-03-26T09:38:23.654Z,96.6471
2023-03-26T09:39:24.025Z,96.5489
2023-03-26T09:40:24.127Z,96.4585
2023-03-26T09:42:25.077Z,96.2917
2023-03-26T09:43:25.402Z,96.2256
2023-03-26T09:44:25.700Z,96.1397
2023-03-26T09:45:25.996Z,96.0608
2023-03-26T09:46:26.471Z,95.9694
2023-03-26T09:47:27.028Z,95.8941
2023-03-26T09:48:27.404Z,95.7583
2023-03-26T09:49:27.810Z,95.6604
2023-03-26T09:50:28.029Z,95.5905
2023-03-26T09:51:28.445Z,95.5146
2023-03-26T09:52:28.668Z,95.4411
2023-03-26T09:53:29.076Z,95.3602
2023-03-26T09:54:29.325Z,95.2806
2023-03-26T09:55:29.804Z,95.2499
2023-03-26T09:56:30.029Z,95.2393
2023-03-26T09:57:30.588Z,95.2073
2023-03-26T09:58:31.181Z,95.1824
2023-03-26T09:59:31.366Z,95.1538
2023-03-26T10:01:32.468Z,95.1842
2023-03-26T10:02:46.672Z,95.2707
2023-03-26T10:03:37.428Z,97.9427
2023-03-26T10:04:38.083Z,97.9529
2023-03-26T10:05:38.851Z,87.0870
2023-03-26T10:06:39.485Z,83.8299
2023-03-26T10:07:40.152Z,83.9528
2023-03-26T10:08:40.605Z,84.3224
2023-03-26T10:10:41.516Z,83.9966
2023-03-26T10:11:42.159Z,83.7567
2023-03-26T10:12:41.760Z,83.7431
2023-03-26T10:14:42.391Z,83.9015
2023-03-26T10:16:42.692Z,82.8036
2023-03-26T10:17:43.341Z,82.1195
2023-03-26T10:19:44.514Z,82.5425
2023-03-26T10:20:44.988Z,81.1212
2023-03-26T10:21:45.869Z,80.9142
2023-03-26T10:22:46.206Z,80.6358
2023-03-26T10:23:46.678Z,80.1847
2023-03-26T10:24:46.965Z,80.4593
2023-03-26T10:25:47.404Z,81.4465
2023-03-26T10:27:09.208Z,81.3424
2023-03-26T10:27:48.674Z,81.1320
2023-03-26T10:28:49.179Z,81.2042
2023-03-26T10:29:49.763Z,81.5819
2023-03-26T10:30:50.388Z,80.4721
2023-03-26T10:31:51.163Z,80.3444
2023-03-26T10:33:51.653Z,80.2121
2023-03-26T10:34:52.782Z,80.7719
2023-03-26T10:35:53.414Z,80.3388
2023-03-26T10:36:54.114Z,79.0140
2023-03-26T10:37:54.184Z,79.3949
2023-03-26T10:38:54.725Z,79.2702
2023-03-26T10:39:55.636Z,79.5493
2023-03-26T10:40:56.287Z,80.2104
2023-03-26T10:41:56.052Z,80.3052
2023-03-26T10:42:56.343Z,80.2125
2023-03-26T10:44:07.525Z,80.8296
2023-03-26T10:44:57.075Z,79.8158
2023-03-26T10:45:57.777Z,80.2902
2023-03-26T10:46:58.342Z,79.9251
2023-03-26T10:47:59.047Z,80.8155
2023-03-26T10:48:59.469Z,80.0988
2023-03-26T10:50:00.409Z,80.6024
2023-03-26T10:51:01.666Z,78.8481
2023-03-26T10:52:02.333Z,78.3618
2023-03-26T10:53:03.202Z,77.5774
2023-03-26T10:54:04.333Z,77.4083
2023-03-26T10:55:05.376Z,78.8598
2023-03-26T10:56:06.053Z,79.8282
2023-03-26T10:57:07.123Z,79.3070
2023-03-26T10:58:08.005Z,78.9543
2023-03-26T10:59:08.409Z,79.1763
2023-03-26T11:00:09.448Z,77.5638
2023-03-26T11:01:09.957Z,76.6687
2023-03-26T11:02:11.083Z,76.8735
2023-03-26T11:06:13.490Z,77.5772
2023-03-26T11:07:14.507Z,77.6714
2023-03-26T11:08:14.869Z,77.8575
2023-03-26T11:09:15.324Z,76.3052
2023-03-26T11:10:15.808Z,75.5639
2023-03-26T11:11:16.379Z,75.2825
2023-03-26T11:12:26.738Z,76.3582
2023-03-26T11:13:18.337Z,77.4786
2023-03-26T11:14:33.784Z,76.6710
2023-03-26T11:15:22.372Z,77.8178
2023-03-26T11:16:23.170Z,76.4921
2023-03-26T11:17:40.627Z,75.1847
2023-03-26T11:18:24.423Z,73.7179
2023-03-26T11:19:24.972Z,73.4006
2023-03-26T11:22:26.834Z,73.5758
2023-03-26T11:23:27.758Z,71.4659
2023-03-26T11:24:28.732Z,72.0772
2023-03-26T11:25:29.165Z,72.7164
2023-03-26T11:26:29.644Z,73.1495
2023-03-26T11:27:29.698Z,72.5757
2023-03-26T11:28:30.176Z,72.5417
2023-03-26T11:29:33.636Z,72.7008
2023-03-26T11:31:32.359Z,73.3081
2023-03-26T11:32:33.124Z,72.9389
2023-03-26T11:33:33.561Z,73.3129
2023-03-26T11:34:34.754Z,71.9915
2023-03-26T11:35:41.756Z,71.3716
2023-03-26T11:37:41.017Z,71.5047
2023-03-26T11:38:41.573Z,72.6708
2023-03-26T11:39:41.979Z,73.1787
2023-03-26T11:40:42.652Z,72.2160
2023-03-26T11:41:43.075Z,72.5238
2023-03-26T11:42:43.795Z,72.2089
2023-03-26T11:43:44.197Z,70.0275
2023-03-26T11:44:44.814Z,70.6742
2023-03-26T11:45:45.306Z,70.1293
2023-03-26T11:46:45.738Z,69.9079
2023-03-26T11:47:46.657Z,70.0657
2023-03-26T11:48:47.143Z,71.4430
2023-03-26T11:49:47.575Z,70.2453
2023-03-26T11:50:48.009Z,69.1750
2023-03-26T11:51:48.896Z,70.4385
2023-03-26T11:53:49.418Z,69.9421
2023-03-26T11:54:49.987Z,69.7268
2023-03-26T11:55:50.256Z,69.3141
2023-03-26T11:57:06.021Z,69.0615
2023-03-26T11:57:54.342Z,68.3939
2023-03-26T11:58:54.847Z,68.1024
2023-03-26T11:59:59.968Z,68.2196
2023-03-26T12:01:00.766Z,69.4511
2023-03-26T12:02:01.320Z,66.6876
2023-03-26T12:03:01.555Z,65.4027
2023-03-26T12:04:02.036Z,66.0165
2023-03-26T12:05:03.397Z,65.1975
2023-03-26T12:06:04.354Z,65.9200
2023-03-26T12:07:04.686Z,67.5989
2023-03-26T12:08:05.415Z,67.1196
2023-03-26T12:09:05.778Z,67.5158
2023-03-26T12:10:18.280Z,68.5453
2023-03-26T12:11:11.865Z,68.2750
2023-03-26T12:12:13.045Z,68.0249
2023-03-26T12:13:13.640Z,68.0621
2023-03-26T12:14:14.005Z,66.0836
2023-03-26T12:15:14.543Z,67.2606
2023-03-26T12:16:14.958Z,67.2390
2023-03-26T12:17:15.730Z,66.8279
2023-03-26T12:18:16.863Z,66.0986
2023-03-26T12:19:17.330Z,64.8365
2023-03-26T12:20:17.902Z,64.2706
2023-03-26T12:21:18.521Z,65.0077
2023-03-26T12:22:19.233Z,64.4754
2023-03-26T12:23:19.627Z,64.5927
2023-03-26T12:24:20.251Z,64.9514
2023-03-26T12:25:20.645Z,65.8881
2023-03-26T12:26:21.247Z,66.2201
2023-03-26T12:27:21.632Z,65.8957
2023-03-26T12:28:22.143Z,65.6494
2023-03-26T12:29:22.732Z,66.4561
2023-03-26T12:30:23.401Z,66.7685
2023-03-26T12:31:23.923Z,67.3219
2023-03-26T12:32:32.439Z,68.8471
2023-03-26T12:33:25.349Z,74.1348
2023-03-26T12:34:25.466Z,74.8076
2023-03-26T12:36:26.831Z,74.8716
2023-03-26T12:37:27.387Z,72.7112
2023-03-26T12:38:27.904Z,72.8260
2023-03-26T12:40:30.702Z,71.4089
2023-03-26T12:44:44.672Z,70.7905
2023-03-26T12:44:50.756Z,69.2532
2023-03-26T12:44:52.690Z,69.6216
2023-03-26T12:45:00.519Z,70.0280
2023-03-26T12:47:55.405Z,69.2062
2023-03-26T12:48:00.516Z,68.0162
2023-03-26T12:48:06.507Z,67.5006
2023-03-26T12:49:07.267Z,67.6702
2023-03-26T12:50:08.560Z,65.9565
2023-03-26T12:51:08.940Z,61.9784
2023-03-26T12:52:09.543Z,59.7244
2023-03-26T12:53:10.002Z,58.2184
2023-03-26T12:54:10.270Z,56.8120
2023-03-26T12:55:13.997Z,55.9089
2023-03-26T12:57:14.476Z,58.5661
2023-03-26T12:58:15.966Z,58.9745
2023-03-26T12:59:16.363Z,58.5705
2023-03-26T13:00:17.135Z,58.4538
2023-03-26T13:01:17.819Z,58.5774
2023-03-26T13:02:18.876Z,58.6066
2023-03-26T13:03:19.405Z,58.8888
2023-03-26T13:04:19.568Z,62.8800
2023-03-26T13:06:19.877Z,60.3962
2023-03-26T13:07:20.170Z,63.8493
2023-03-26T13:08:20.723Z,66.2173